Flight Track Log - Related Links

Times and Time Zones

All times are in EDT time to prevent confusion due to time zone crossing. See the N650CH flight status page for this flight to view local times or setup timezone preferences in your user account.

Time Position Orientation Groundspeed Altitude Reporting Facility
EDT Latitude Longitude Course Direction KTS MPH feet Rate Location/Type
Wed 03:02:53 PM 44.3958 -100.1525 90° East 217 250 5,900  Level Minneapolis Center
Wed 03:03:55 PM 44.4028 -100.0522 84° East 234 269 8,400 2,419 Climbing Minneapolis Center
Wed 03:04:57 PM 44.4089 -99.9381 86° East 262 302 10,900 2,419 Climbing Minneapolis Center
Wed 03:05:59 PM 44.4161 -99.8183 85° East 287 330 13,400 2,129 Climbing Minneapolis Center
Wed 03:07:01 PM 44.4233 -99.6919 85° East 311 358 15,300 1,742 Climbing Minneapolis Center
Wed 03:08:00 PM 44.4694 -99.4609 90° East  Level Estimated
Wed 03:08:03 PM 44.4297 -99.5525 86° East 346 398 17,000  Level Minneapolis Center
Wed 03:09:04 PM 44.4394 -99.3772 85° East 371 427 19,100 1,902 Climbing Minneapolis Center
Wed 03:10:06 PM 44.4469 -99.2289 86° East 381 438 20,900 1,694 Climbing Minneapolis Center
Wed 03:11:08 PM 44.4561 -99.0753 85° East 391 450 22,600 1,694 Climbing Minneapolis Center
Wed 03:12:10 PM 44.4642 -98.9194 86° East 399 459 24,400 1,694 Climbing Minneapolis Center
Wed 03:13:12 PM 44.4714 -98.7606 86° East 407 468 26,100 1,694 Climbing Minneapolis Center
Wed 03:14:14 PM 44.4803 -98.5997 86° East 412 474 27,900 1,887 Climbing Minneapolis Center
Wed 03:15:16 PM 44.4889 -98.4039 86° East 419 482 30,000 1,415 Climbing Minneapolis Center
Wed 03:16:17 PM 44.4953 -98.2647 86° East 421 484 30,800 976 Climbing Minneapolis Center
Wed 03:17:19 PM 44.5042 -98.0572 86° East 440 506 32,000 1,016 Climbing Minneapolis Center
Wed 03:18:21 PM 44.5114 -97.8789 87° East 454 522 32,900 484 Climbing Minneapolis Center
Wed 03:19:23 PM 44.5183 -97.6950 87° East 469 540 33,000 48 Climbing Minneapolis Center
Wed 03:20:25 PM 44.5250 -97.5039 87° East 488 562 33,000  Level Minneapolis Center
Wed 03:21:27 PM 44.5322 -97.3092 87° East 499 574 33,000  Level Minneapolis Center
Wed 03:22:28 PM 44.5394 -97.1147 87° East 500 575 33,000  Level Minneapolis Center
Wed 03:23:30 PM 44.5469 -96.8825 87° East 497 572 33,000  Level Minneapolis Center
Wed 03:24:32 PM 44.5531 -96.6892 87° East 495 570 33,000  Level Minneapolis Center
Wed 03:25:34 PM 44.5586 -96.4967 88° East 493 567 33,000  Level Minneapolis Center
Wed 03:26:36 PM 44.5647 -96.3028 87° East 494 568 33,000  Level Minneapolis Center
Wed 03:27:38 PM 44.5700 -96.1103 88° East 491 565 33,000 -732 Level Minneapolis Center
Wed 03:28:39 PM 44.5742 -95.9256 88° East 477 549 31,500 -1,756 Descending Minneapolis Center
Wed 03:29:41 PM 44.5783 -95.7436 88° East 468 539 29,400 -2,081 Descending Minneapolis Center
Wed 03:30:43 PM 44.5811 -95.5617 89° East 466 536 27,200 -2,177 Descending Minneapolis Center
Wed 03:31:45 PM 44.5922 -95.3822 85° East 463 533 24,900 -2,488 Descending Minneapolis Center
Wed 03:32:46 PM 44.6386 -95.1783 72° East 458 527 22,100 -2,488 Descending Minneapolis Center
Wed 03:33:48 PM 44.6708 -95.0139 75° East 445 512 19,800 -2,226 Descending Minneapolis Center
Wed 03:34:50 PM 44.7036 -94.8569 74° East 427 491 17,500 -2,226 Descending Minneapolis Center
Wed 03:35:52 PM 44.7356 -94.7061 73° East 411 473 15,200 -2,371 Descending Minneapolis Center
Wed 03:36:54 PM 44.7686 -94.5497 73° East 382 440 12,600 -2,390 Descending Minneapolis Center
Wed 03:37:55 PM 44.7958 -94.4153 74° East 360 414 10,300 -2,195 Descending Minneapolis Center
Wed 03:38:57 PM 44.8217 -94.2858 74° East 344 396 8,100 -1,161 Descending Minneapolis Center
Wed 03:39:59 PM 44.8433 -94.1681 75° East 311 358 7,900 -484 Descending Minneapolis Center
Wed 03:41:01 PM 44.8511 -94.0519 85° East 300 345 7,100 -1,024 Descending Minneapolis Center
Wed 03:42:02 PM 44.8553 -93.9325 87° East 306 352 5,800 -1,024 Descending Minneapolis Center
Wed 03:43:04 PM 44.8450 -93.8144 97° East 306 352 5,000 -387 Descending Minneapolis Center
Wed 03:44:06 PM 44.8406 -93.6856 93° East 276 318 5,000  Level Minneapolis Center
Wed 03:45:08 PM 44.8356 -93.5858 94° East 258 297 5,000 -145 Level Minneapolis Center
Wed 03:46:10 PM 44.8306 -93.4889 94° East 250 288 4,700 -488 Descending Minneapolis Center
Wed 03:47:11 PM 44.8553 -93.3914 70° East 275 316 4,000 -341 Descending Minneapolis Center
Wed 03:48:13 PM 44.8958 -93.3136 54° Northeast 243 280 4,000 -194 Level Minneapolis Center
Wed 03:49:15 PM 44.9311 -93.2397 56° Northeast 226 260 3,600 -532 Descending Minneapolis Center
Wed 03:50:17 PM 44.9583 -93.1658 62° Northeast 212 244 2,900 -823 Descending Minneapolis Center
Wed 03:51:19 PM 44.9719 -93.1008 73° East 175 201 1,900 -878 Descending Minneapolis Center
Wed 03:52:20 PM 44.9383 -93.0650 143° Southeast 139 160 1,100 -787 Descending Minneapolis Center
Wed 03:54:00 PM 44.9333 -93.0500 133° Southeast  Level FlightAware Approximate
Wed 04:01:00 PM 44.9346 -93.0603 133° Southeast  Level Estimated

Login

Don't have an account? Register now (free) for customized features, flight alerts, and more!